sensor_id;sensor_type;location;lat;lon;timestamp;temperature;humidity
41080;DHT22;26826;50.718;7.114;2023-12-28T00:01:28;10.20;99.90
41080;DHT22;26826;50.718;7.114;2023-12-28T00:11:29;10.20;99.90
41080;DHT22;26826;50.718;7.114;2023-12-28T00:21:30;10.10;99.90
41080;DHT22;26826;50.718;7.114;2023-12-28T00:31:30;10.10;99.90
41080;DHT22;26826;50.718;7.114;2023-12-28T00:41:31;10.10;99.90
41080;DHT22;26826;50.718;7.114;2023-12-28T00:51:31;9.90;99.90
41080;DHT22;26826;50.718;7.114;2023-12-28T01:01:31;9.70;99.90
41080;DHT22;26826;50.718;7.114;2023-12-28T01:11:32;9.60;99.90
41080;DHT22;26826;50.718;7.114;2023-12-28T01:21:32;9.70;99.90
41080;DHT22;26826;50.718;7.114;2023-12-28T01:31:33;9.60;99.90
41080;DHT22;26826;50.718;7.114;2023-12-28T01:41:33;9.50;99.90
41080;DHT22;26826;50.718;7.114;2023-12-28T01:51:34;9.40;99.90
41080;DHT22;26826;50.718;7.114;2023-12-28T02:01:35;9.40;99.90
41080;DHT22;26826;50.718;7.114;2023-12-28T02:11:35;9.30;99.90
41080;DHT22;26826;50.718;7.114;2023-12-28T02:21:36;9.20;99.90
41080;DHT22;26826;50.718;7.114;2023-12-28T02:31:42;9.30;99.90
41080;DHT22;26826;50.718;7.114;2023-12-28T02:41:45;9.30;99.90
41080;DHT22;26826;50.718;7.114;2023-12-28T02:51:46;9.20;99.90
41080;DHT22;26826;50.718;7.114;2023-12-28T03:01:47;9.20;99.90
41080;DHT22;26826;50.718;7.114;2023-12-28T03:11:48;9.10;99.90
41080;DHT22;26826;50.718;7.114;2023-12-28T03:21:48;9.00;99.90
41080;DHT22;26826;50.718;7.114;2023-12-28T03:31:48;9.00;99.90
41080;DHT22;26826;50.718;7.114;2023-12-28T03:41:50;9.00;99.90
41080;DHT22;26826;50.718;7.114;2023-12-28T03:51:50;9.00;99.90
41080;DHT22;26826;50.718;7.114;2023-12-28T04:01:51;9.00;99.90
41080;DHT22;26826;50.718;7.114;2023-12-28T04:11:51;9.10;99.90
41080;DHT22;26826;50.718;7.114;2023-12-28T04:21:51;8.90;99.90
41080;DHT22;26826;50.718;7.114;2023-12-28T04:31:52;9.00;99.90
41080;DHT22;26826;50.718;7.114;2023-12-28T04:41:52;8.90;99.90
41080;DHT22;26826;50.718;7.114;2023-12-28T04:51:54;8.90;99.90
41080;DHT22;26826;50.718;7.114;2023-12-28T05:01:55;8.90;99.90
41080;DHT22;26826;50.718;7.114;2023-12-28T05:32:58;8.90;99.90
41080;DHT22;26826;50.718;7.114;2023-12-28T05:42:59;9.00;99.90
41080;DHT22;26826;50.718;7.114;2023-12-28T05:52:59;9.20;99.90
41080;DHT22;26826;50.718;7.114;2023-12-28T06:03:01;9.40;99.90
41080;DHT22;26826;50.718;7.114;2023-12-28T06:13:01;9.50;99.90
41080;DHT22;26826;50.718;7.114;2023-12-28T06:23:02;9.40;99.90
41080;DHT22;26826;50.718;7.114;2023-12-28T06:33:03;9.30;99.90
41080;DHT22;26826;50.718;7.114;2023-12-28T06:43:03;9.20;99.90
41080;DHT22;26826;50.718;7.114;2023-12-28T06:53:04;9.10;99.90
41080;DHT22;26826;50.718;7.114;2023-12-28T07:03:04;8.90;99.90
41080;DHT22;26826;50.718;7.114;2023-12-28T07:13:14;8.80;99.90
41080;DHT22;26826;50.718;7.114;2023-12-28T07:23:17;8.80;99.90
41080;DHT22;26826;50.718;7.114;2023-12-28T07:33:18;8.80;99.90
41080;DHT22;26826;50.718;7.114;2023-12-28T07:43:18;8.80;99.90
41080;DHT22;26826;50.718;7.114;2023-12-28T07:53:19;8.90;99.90
41080;DHT22;26826;50.718;7.114;2023-12-28T08:03:19;9.00;99.90
41080;DHT22;26826;50.718;7.114;2023-12-28T08:13:20;8.50;99.90
41080;DHT22;26826;50.718;7.114;2023-12-28T08:23:20;8.70;99.90
41080;DHT22;26826;50.718;7.114;2023-12-28T08:33:20;8.70;99.90
41080;DHT22;26826;50.718;7.114;2023-12-28T08:43:21;9.10;99.90
41080;DHT22;26826;50.718;7.114;2023-12-28T08:53:21;9.20;99.90
41080;DHT22;26826;50.718;7.114;2023-12-28T09:03:22;9.50;99.90
41080;DHT22;26826;50.718;7.114;2023-12-28T09:13:22;9.70;99.90
41080;DHT22;26826;50.718;7.114;2023-12-28T09:23:23;10.10;99.90
41080;DHT22;26826;50.718;7.114;2023-12-28T09:33:23;10.90;99.90
41080;DHT22;26826;50.718;7.114;2023-12-28T09:43:25;11.40;99.90
41080;DHT22;26826;50.718;7.114;2023-12-28T09:53:26;11.80;99.90
41080;DHT22;26826;50.718;7.114;2023-12-28T10:03:26;12.20;99.90
41080;DHT22;26826;50.718;7.114;2023-12-28T10:13:27;12.50;99.90
41080;DHT22;26826;50.718;7.114;2023-12-28T10:23:27;12.80;99.90
41080;DHT22;26826;50.718;7.114;2023-12-28T10:33:28;13.40;99.90
41080;DHT22;26826;50.718;7.114;2023-12-28T10:43:46;13.40;99.90
41080;DHT22;26826;50.718;7.114;2023-12-28T11:03:58;14.10;99.90
41080;DHT22;26826;50.718;7.114;2023-12-28T11:14:04;13.80;99.90
41080;DHT22;26826;50.718;7.114;2023-12-28T11:24:05;14.00;99.90
41080;DHT22;26826;50.718;7.114;2023-12-28T11:34:05;14.10;99.90
41080;DHT22;26826;50.718;7.114;2023-12-28T11:44:08;14.40;99.90
41080;DHT22;26826;50.718;7.114;2023-12-28T11:54:08;14.90;99.90
41080;DHT22;26826;50.718;7.114;2023-12-28T12:04:09;15.10;99.90
41080;DHT22;26826;50.718;7.114;2023-12-28T12:14:09;15.20;99.90
41080;DHT22;26826;50.718;7.114;2023-12-28T12:24:10;15.00;99.90
41080;DHT22;26826;50.718;7.114;2023-12-28T12:34:10;15.00;99.90
41080;DHT22;26826;50.718;7.114;2023-12-28T12:44:11;14.20;99.90
41080;DHT22;26826;50.718;7.114;2023-12-28T12:54:12;14.30;99.90
41080;DHT22;26826;50.718;7.114;2023-12-28T13:04:13;14.60;99.90
41080;DHT22;26826;50.718;7.114;2023-12-28T13:14:14;14.60;99.90
41080;DHT22;26826;50.718;7.114;2023-12-28T13:24:15;14.30;99.90
41080;DHT22;26826;50.718;7.114;2023-12-28T13:34:15;14.00;99.90
41080;DHT22;26826;50.718;7.114;2023-12-28T13:44:16;13.40;99.90
41080;DHT22;26826;50.718;7.114;2023-12-28T13:54:17;13.50;99.90
41080;DHT22;26826;50.718;7.114;2023-12-28T14:04:19;13.60;99.90
41080;DHT22;26826;50.718;7.114;2023-12-28T14:14:20;13.20;99.90
41080;DHT22;26826;50.718;7.114;2023-12-28T14:24:20;13.00;99.90
41080;DHT22;26826;50.718;7.114;2023-12-28T14:34:21;12.70;99.90
41080;DHT22;26826;50.718;7.114;2023-12-28T14:44:22;12.60;99.90
41080;DHT22;26826;50.718;7.114;2023-12-28T14:54:22;12.40;99.90
41080;DHT22;26826;50.718;7.114;2023-12-28T15:04:22;12.20;99.90
41080;DHT22;26826;50.718;7.114;2023-12-28T15:14:23;12.10;99.90
41080;DHT22;26826;50.718;7.114;2023-12-28T15:24:24;11.90;99.90
41080;DHT22;26826;50.718;7.114;2023-12-28T15:34:24;11.70;99.90
41080;DHT22;26826;50.718;7.114;2023-12-28T15:44:25;11.60;99.90
41080;DHT22;26826;50.718;7.114;2023-12-28T15:54:25;11.40;99.90
41080;DHT22;26826;50.718;7.114;2023-12-28T16:04:26;11.20;99.90
41080;DHT22;26826;50.718;7.114;2023-12-28T16:14:26;11.20;99.90
41080;DHT22;26826;50.718;7.114;2023-12-28T16:24:27;11.00;99.90
41080;DHT22;26826;50.718;7.114;2023-12-28T16:34:27;11.00;99.90
41080;DHT22;26826;50.718;7.114;2023-12-28T16:44:31;10.80;99.90
41080;DHT22;26826;50.718;7.114;2023-12-28T16:54:31;10.80;99.90
41080;DHT22;26826;50.718;7.114;2023-12-28T17:04:32;10.90;99.90
41080;DHT22;26826;50.718;7.114;2023-12-28T17:14:32;10.80;99.90
41080;DHT22;26826;50.718;7.114;2023-12-28T17:24:35;10.70;99.90
41080;DHT22;26826;50.718;7.114;2023-12-28T17:34:38;10.70;99.90
41080;DHT22;26826;50.718;7.114;2023-12-28T17:44:40;10.60;99.90
41080;DHT22;26826;50.718;7.114;2023-12-28T17:54:42;10.40;99.90
41080;DHT22;26826;50.718;7.114;2023-12-28T18:04:44;10.50;99.90
41080;DHT22;26826;50.718;7.114;2023-12-28T18:14:44;10.40;99.90
41080;DHT22;26826;50.718;7.114;2023-12-28T18:24:45;10.20;99.90
41080;DHT22;26826;50.718;7.114;2023-12-28T18:34:45;10.00;99.90
41080;DHT22;26826;50.718;7.114;2023-12-28T18:44:46;10.00;99.90
41080;DHT22;26826;50.718;7.114;2023-12-28T18:54:46;10.00;99.90
41080;DHT22;26826;50.718;7.114;2023-12-28T19:04:47;10.00;99.90
41080;DHT22;26826;50.718;7.114;2023-12-28T19:14:47;10.00;99.90
41080;DHT22;26826;50.718;7.114;2023-12-28T19:24:48;10.00;99.90
41080;DHT22;26826;50.718;7.114;2023-12-28T19:34:48;9.90;99.90
41080;DHT22;26826;50.718;7.114;2023-12-28T19:44:49;9.80;99.90
41080;DHT22;26826;50.718;7.114;2023-12-28T19:54:49;9.90;99.90
41080;DHT22;26826;50.718;7.114;2023-12-28T20:04:51;9.80;99.90
41080;DHT22;26826;50.718;7.114;2023-12-28T20:14:55;9.70;99.90
41080;DHT22;26826;50.718;7.114;2023-12-28T20:24:56;9.70;99.90
41080;DHT22;26826;50.718;7.114;2023-12-28T20:34:57;9.80;99.90
41080;DHT22;26826;50.718;7.114;2023-12-28T20:44:57;9.80;99.90
41080;DHT22;26826;50.718;7.114;2023-12-28T20:54:58;9.80;99.90
41080;DHT22;26826;50.718;7.114;2023-12-28T21:04:58;9.70;99.90
41080;DHT22;26826;50.718;7.114;2023-12-28T21:14:58;9.70;99.90
41080;DHT22;26826;50.718;7.114;2023-12-28T21:24:59;9.50;99.90
41080;DHT22;26826;50.718;7.114;2023-12-28T21:34:59;9.60;99.90
41080;DHT22;26826;50.718;7.114;2023-12-28T21:45:00;9.80;99.90
41080;DHT22;26826;50.718;7.114;2023-12-28T21:55:00;9.80;99.90
41080;DHT22;26826;50.718;7.114;2023-12-28T22:05:01;10.10;99.90
41080;DHT22;26826;50.718;7.114;2023-12-28T22:15:01;10.10;99.90
41080;DHT22;26826;50.718;7.114;2023-12-28T22:25:02;10.00;99.90
41080;DHT22;26826;50.718;7.114;2023-12-28T22:35:03;10.10;99.90
41080;DHT22;26826;50.718;7.114;2023-12-28T22:45:05;9.90;99.90
41080;DHT22;26826;50.718;7.114;2023-12-28T22:55:05;9.90;99.90
41080;DHT22;26826;50.718;7.114;2023-12-28T23:05:06;9.80;99.90
41080;DHT22;26826;50.718;7.114;2023-12-28T23:36:09;9.80;99.90
41080;DHT22;26826;50.718;7.114;2023-12-28T23:56:17;9.90;99.90
